Salt Flat, TX

3:30 PM MDT on August 24, 2016 (GMT -0600)
Guadalupe Pass | | Change Station

Elev 5453 ft 31.83 °N, 104.81 °W | Updated 39 minutes ago

Clear
Clear
77 °F
Feels Like 77 °F
N
9
Wind Variable Wind from WSW

Today
High -- | Low -- °F
--% Chance of Precip.
Yesterday
High -- | Low -- °F
Precip. -- in
Pressure 30.01 in
Visibility 10.0 miles
Clouds Clear
Dew Point 57 °F
Humidity 50%
Rainfall 1.62 in
Snow Depth Not available.
6:30 AM 7:32 PM
Waning Gibbous, 53% visible
METAR KGDP 242051Z AUTO 24008KT 10SM CLR 25/14 A3024 RMK AO2 SLP161 T02500139 58007
Pressure 30.01 in
Visibility 10.0 miles
Clouds Clear
Dew Point 57 °F
Humidity 50%
Rainfall 1.62 in
Snow Depth Not available.
6:30 AM 7:32 PM
Waning Gibbous, 53% visible
METAR KGDP 242051Z AUTO 24008KT 10SM CLR 25/14 A3024 RMK AO2 SLP161 T02500139 58007

10-Day Weather Forecast

Almanac

Astronomy

Aug. 24, 2016 Rise Set
Actual Time
Civil Twilight
Nautical Twilight
Astronomical Twilight
Moon
Length of Visible Light
Length of Day
Tomorrow will be .
, % of the Moon is Illuminated

Today's Extremes

State Highs State Lows

Community

WunderPhotos

Upload Photos

1,934,719 photos uploaded!

WunderBlog® & News

Nearby

Air Quality

  Air Quality AQ Index Pollutant
Not available.

Snow Depth

Station Depth Elevation

Earthquake Activity

City Distance Mag. Time & Date
Minimum magnitude displayed is 2.5.

Coastal Water Temperatures

Place Temperature

Stations

Nearby Weather Stations

Station Location Temp. Windchill Dew Point Humidity Wind Precip. Elev Updated Type
                   

Watches & Warnings

There are currently no watches in effect.